NCAR-RAP Real-Time Weather Data

Output produced by METARs form (06 May 2021  15:57 UTC)
found at http://weather.rap.ucar.edu/surface/
 
KCNK 061455Z AUTO 02013G18KT 10SM CLR 11/04 A3036 RMK AO2 SLP278 T01060039 51016
KCNK 061355Z AUTO 01014G22KT 10SM CLR 09/03 A3036 RMK AO2 SLP278 T00890033
KCNK 061255Z AUTO 01013G19KT 10SM BKN090 08/03 A3034 RMK AO2 SLP273 T00780033
KCNK 061155Z AUTO 10SM CLR 06/03 A3031 RMK AO2 SLP263 70058 T00610028 10128 20061 53028
KCNK 061055Z AUTO 35011KT 10SM CLR 07/03 A3027 RMK AO2 SLP248 T00670033
KCNK 060955Z AUTO 35010KT 10SM FEW120 08/04 A3024 RMK AO2 SLP236 T00830044
KCNK 060855Z AUTO 35010KT 10SM CLR 09/06 A3022 RMK AO2 SLP228 T00940061 53017
KCNK 060755Z AUTO 32009KT 10SM CLR 10/05 A3020 RMK AO2 SLP222 T01000050
KCNK 060655Z AUTO 30007KT 10SM CLR 11/06 A3017 RMK AO2 SLP213 T01060061
KCNK 060555Z AUTO 30005KT 10SM CLR 12/07 A3017 RMK AO2 SLP212 T01220072 10178 20117 402110028 51019
KCNK 060455Z AUTO 28004KT 10SM CLR 12/08 A3016 RMK AO2 SLP209 T01220078
KCNK 060355Z AUTO 22008KT 10SM CLR 14/08 A3014 RMK AO2 SLP200 T01390078
KCNK 060255Z AUTO 20009KT 10SM FEW100 15/08 A3011 RMK AO2 SLP192 T01500083 53015
KCNK 060155Z AUTO 19014KT 10SM OVC100 17/08 A3008 RMK AO2 SLP182 T01670083